Time;durP1;ratioP1;P1;durP2;ratioP2;P2;SDS_P1;SDS_P2;PMS_P1;PMS_P2;Temp;Humidity;BMP_temperature;BMP_pressure;BME280_temperature;BME280_humidity;BME280_pressure;Samples;Min_cycle;Max_cycle;Signal;HPM_P1;HPM_P2
2023/12/20 00:00:39;;;;;;;26.20;18.07;;;8.60;99.90;;;;;;5042561;28;20489;-79
2023/12/20 00:03:06;;;;;;;22.23;14.27;;;8.50;99.90;;;;;;5043498;28;20477;-79
2023/12/20 00:05:33;;;;;;;22.87;15.27;;;8.40;99.90;;;;;;5040980;28;20485;-78
2023/12/20 00:08:01;;;;;;;19.70;13.30;;;8.40;99.90;;;;;;5044341;28;20457;-79
2023/12/20 00:10:28;;;;;;;19.37;12.03;;;8.50;99.90;;;;;;5038291;28;20485;-79
2023/12/20 00:12:55;;;;;;;17.13;12.37;;;8.40;99.90;;;;;;5042487;28;20554;-78
2023/12/20 00:15:21;;;;;;;21.70;13.73;;;8.50;99.90;;;;;;5039738;28;20462;-79
2023/12/20 00:17:48;;;;;;;21.37;13.60;;;8.40;99.90;;;;;;5042301;28;20490;-80
2023/12/20 00:20:22;;;;;;;18.90;12.50;;;8.40;99.90;;;;;;5038026;28;20481;-77
2023/12/20 00:22:53;;;;;;;23.77;14.43;;;8.30;99.90;;;;;;5039993;28;20545;-79
2023/12/20 00:25:23;;;;;;;22.20;14.10;;;8.30;99.90;;;;;;5034074;28;20495;-80
2023/12/20 00:27:49;;;;;;;21.47;14.00;;;8.30;99.90;;;;;;5036559;28;20476;-80
2023/12/20 00:30:16;;;;;;;22.43;13.40;;;8.30;99.90;;;;;;5036447;28;20501;-80
2023/12/20 00:32:46;;;;;;;21.20;14.10;;;8.20;99.90;;;;;;5039631;28;20553;-81
2023/12/20 00:35:13;;;;;;;22.10;12.90;;;8.20;99.90;;;;;;5038404;28;20492;-80
2023/12/20 00:37:40;;;;;;;15.73;11.13;;;8.10;99.90;;;;;;5037911;28;20625;-80
2023/12/20 00:40:08;;;;;;;21.77;13.23;;;8.10;99.90;;;;;;5045039;28;20475;-79
2023/12/20 00:42:36;;;;;;;24.70;11.77;;;8.00;99.90;;;;;;5040941;28;20480;-80
2023/12/20 00:45:04;;;;;;;26.07;12.60;;;7.90;99.90;;;;;;5037200;28;20481;-81
2023/12/20 00:47:31;;;;;;;15.70;10.17;;;7.80;99.90;;;;;;5038914;28;20485;-79
2023/12/20 00:49:58;;;;;;;18.00;9.10;;;7.80;99.90;;;;;;5038954;28;20490;-80
2023/12/20 00:52:25;;;;;;;19.43;9.50;;;7.80;99.90;;;;;;5039386;28;20449;-81
2023/12/20 00:54:52;;;;;;;20.70;12.00;;;7.80;99.90;;;;;;5039845;28;20823;-81
2023/12/20 00:57:19;;;;;;;17.30;9.10;;;7.80;99.90;;;;;;5042238;28;20445;-81
2023/12/20 00:59:48;;;;;;;16.87;9.40;;;7.70;99.90;;;;;;5038846;28;20469;-80
2023/12/20 01:02:14;;;;;;;14.10;8.57;;;7.70;99.90;;;;;;5038576;28;20453;-80
2023/12/20 01:04:41;;;;;;;12.40;7.80;;;7.70;99.90;;;;;;5044353;28;20448;-80
2023/12/20 01:07:09;;;;;;;12.83;7.67;;;7.70;99.90;;;;;;5041297;28;20575;-81
2023/12/20 01:09:36;;;;;;;16.70;9.80;;;7.70;99.90;;;;;;5046172;28;20485;-81
2023/12/20 01:12:03;;;;;;;15.83;8.40;;;7.70;99.90;;;;;;5043993;28;20463;-81
2023/12/20 01:14:29;;;;;;;17.40;7.90;;;7.70;99.90;;;;;;5044980;28;20448;-81
2023/12/20 01:16:58;;;;;;;11.10;7.90;;;7.70;99.90;;;;;;5034806;28;20502;-80
2023/12/20 01:19:26;;;;;;;13.77;8.87;;;7.70;99.90;;;;;;5046577;28;20475;-81
2023/12/20 01:21:53;;;;;;;16.73;8.03;;;7.70;99.90;;;;;;5039459;28;20453;-81
2023/12/20 01:24:20;;;;;;;14.30;8.70;;;7.70;99.90;;;;;;5042022;28;20454;-81
2023/12/20 01:26:47;;;;;;;17.23;8.80;;;7.80;99.90;;;;;;5039510;28;20523;-81
2023/12/20 01:29:14;;;;;;;17.50;9.03;;;7.80;99.90;;;;;;5039011;28;20902;-81
2023/12/20 01:31:41;;;;;;;18.63;8.07;;;7.80;99.90;;;;;;5034057;28;20967;-81
2023/12/20 01:34:09;;;;;;;17.90;8.47;;;7.80;99.90;;;;;;5039594;28;20460;-80
2023/12/20 01:36:36;;;;;;;23.23;8.87;;;7.70;99.90;;;;;;5033025;28;20937;-81
2023/12/20 01:39:04;;;;;;;15.10;7.70;;;7.70;99.90;;;;;;5042124;28;20445;-81
2023/12/20 01:41:31;;;;;;;15.83;7.10;;;7.70;99.90;;;;;;5034264;28;20492;-80
2023/12/20 01:43:57;;;;;;;18.70;7.23;;;7.80;99.90;;;;;;5039685;28;20476;-81
2023/12/20 01:46:25;;;;;;;14.50;7.70;;;7.70;99.90;;;;;;5041803;28;20567;-81
2023/12/20 01:48:52;;;;;;;15.97;7.67;;;7.70;99.90;;;;;;5036668;28;20544;-81
2023/12/20 01:51:22;;;;;;;18.17;8.10;;;7.70;99.90;;;;;;5037525;28;20463;-81
2023/12/20 01:53:49;;;;;;;13.07;7.27;;;7.70;99.90;;;;;;5039076;28;20486;-81
2023/12/20 01:56:17;;;;;;;12.77;7.33;;;7.60;99.90;;;;;;5042730;28;20445;-81
2023/12/20 01:58:48;;;;;;;13.50;9.37;;;7.60;99.90;;;;;;5038796;28;20935;-81
2023/12/20 02:01:16;;;;;;;11.50;7.90;;;7.60;99.90;;;;;;5045312;28;20955;-81
2023/12/20 02:03:46;;;;;;;10.63;6.30;;;7.60;99.90;;;;;;5040263;28;20524;-80
2023/12/20 02:06:33;;;;;;;10.53;5.60;;;7.40;99.90;;;;;;5037913;28;20492;-79
2023/12/20 02:15:43;;;;;;;;;;;;;;;;;;;;;
2023/12/20 02:22:31;;;;;;;;;;;;;;;;;;;;;
2023/12/20 02:28:25;;;;;;;13.57;5.67;;;6.80;99.90;;;;;;4958007;28;20493;-82
2023/12/20 02:36:08;;;;;;;10.40;6.20;;;6.90;99.90;;;;;;4670821;26;20479;-79
2023/12/20 02:38:35;;;;;;;18.47;6.83;;;6.90;99.90;;;;;;5045926;28;21071;-82
2023/12/20 02:41:02;;;;;;;14.40;7.57;;;7.00;99.90;;;;;;5042399;28;20556;-82
2023/12/20 02:43:30;;;;;;;16.17;6.80;;;7.10;99.90;;;;;;5045120;28;20531;-82
2023/12/20 02:45:57;;;;;;;20.40;7.63;;;7.10;99.90;;;;;;5034641;28;20480;-82
2023/12/20 02:48:23;;;;;;;12.03;6.03;;;7.10;99.90;;;;;;5043217;28;20493;-82
2023/12/20 02:50:50;;;;;;;12.30;6.80;;;7.20;99.90;;;;;;5040889;28;20502;-82
2023/12/20 02:53:17;;;;;;;14.90;7.30;;;7.20;99.90;;;;;;5041848;28;20460;-82
2023/12/20 02:55:44;;;;;;;11.10;6.30;;;7.20;99.90;;;;;;5042657;28;20484;-82
2023/12/20 02:58:14;;;;;;;8.17;5.50;;;7.20;99.90;;;;;;5045789;28;20521;-80
2023/12/20 03:03:54;;;;;;;16.00;7.97;;;7.30;99.90;;;;;;4951538;29;20490;-82
2023/12/20 03:06:21;;;;;;;12.67;6.40;;;7.30;99.90;;;;;;4996090;28;20460;-81
2023/12/20 03:08:47;;;;;;;17.80;6.87;;;7.30;99.90;;;;;;5041476;28;20945;-82
2023/12/20 03:11:14;;;;;;;14.80;7.33;;;7.30;99.90;;;;;;5040874;28;20543;-81
2023/12/20 03:13:41;;;;;;;16.93;7.90;;;7.20;99.90;;;;;;5041166;28;20670;-81
2023/12/20 03:16:11;;;;;;;16.53;7.37;;;7.20;99.90;;;;;;5041899;28;20543;-82
2023/12/20 03:18:38;;;;;;;13.37;8.60;;;7.20;99.90;;;;;;5042011;28;20523;-82
2023/12/20 03:24:30;;;;;;;19.57;8.80;;;7.20;99.90;;;;;;4902897;29;20471;-80
2023/12/20 03:26:57;;;;;;;14.77;7.43;;;7.20;99.90;;;;;;4942930;29;20580;-80
2023/12/20 03:29:24;;;;;;;16.00;8.63;;;7.30;99.90;;;;;;4976661;28;21067;-78
2023/12/20 03:32:06;;;;;;;;;;;;;;;;;;;;;
2023/12/20 03:34:33;;;;;;;15.53;7.30;;;7.20;99.90;;;;;;5040600;28;20556;-81
2023/12/20 03:37:00;;;;;;;12.93;7.47;;;7.10;99.90;;;;;;5041919;28;20449;-82
2023/12/20 03:45:58;;;;;;;11.33;6.37;;;7.00;99.90;;;;;;4918432;28;20488;-79
2023/12/20 03:48:27;;;;;;;17.40;6.23;;;7.00;99.90;;;;;;5012412;28;20587;-82
2023/12/20 03:50:55;;;;;;;21.97;7.33;;;7.00;99.90;;;;;;5037995;28;20494;-77
2023/12/20 03:53:22;;;;;;;14.80;5.87;;;6.90;99.90;;;;;;5038935;28;20472;-77
2023/12/20 03:55:49;;;;;;;12.40;5.90;;;6.90;99.90;;;;;;5040184;28;21040;-82
2023/12/20 03:58:16;;;;;;;12.43;5.47;;;6.80;99.90;;;;;;5039953;28;20448;-78
2023/12/20 04:00:45;;;;;;;16.33;6.03;;;6.70;99.90;;;;;;5039371;28;20560;-77
2023/12/20 04:03:13;;;;;;;17.10;5.60;;;6.70;99.90;;;;;;5040908;28;20474;-78
2023/12/20 04:05:41;;;;;;;13.93;4.40;;;6.80;99.90;;;;;;5039558;28;20471;-78
2023/12/20 04:08:08;;;;;;;11.97;5.60;;;6.70;99.90;;;;;;5040913;28;20526;-79
2023/12/20 04:10:37;;;;;;;11.43;5.17;;;6.70;99.90;;;;;;5037801;28;20504;-76
2023/12/20 04:13:04;;;;;;;13.73;4.60;;;6.70;99.90;;;;;;5040092;28;20460;-76
2023/12/20 04:15:31;;;;;;;22.33;7.53;;;6.80;99.90;;;;;;5040729;28;20455;-78
2023/12/20 04:17:58;;;;;;;13.10;4.33;;;6.70;99.90;;;;;;5039447;28;20513;-80
2023/12/20 04:20:25;;;;;;;10.30;4.80;;;6.70;99.90;;;;;;5039032;28;20483;-76
2023/12/20 04:22:53;;;;;;;8.77;4.17;;;6.70;99.90;;;;;;5040850;28;20520;-80
2023/12/20 04:25:20;;;;;;;13.30;4.97;;;6.60;99.90;;;;;;5040328;28;20506;-78
2023/12/20 04:27:46;;;;;;;7.80;3.90;;;6.40;99.90;;;;;;5040027;28;20495;-79
2023/12/20 04:30:14;;;;;;;13.23;4.73;;;6.40;99.90;;;;;;5038987;28;20477;-81
2023/12/20 04:32:41;;;;;;;14.07;4.90;;;6.30;99.90;;;;;;5040304;28;20488;-80
2023/12/20 04:35:08;;;;;;;13.30;4.67;;;6.30;99.90;;;;;;5040169;28;20559;-79
2023/12/20 04:37:35;;;;;;;11.33;4.87;;;6.30;99.90;;;;;;5040499;28;20449;-80
2023/12/20 04:40:05;;;;;;;17.80;5.33;;;6.30;99.90;;;;;;5040080;28;20564;-80
2023/12/20 04:42:32;;;;;;;12.77;4.63;;;6.30;99.90;;;;;;5040158;28;20460;-80
2023/12/20 04:44:58;;;;;;;10.13;4.93;;;6.30;99.90;;;;;;5040094;28;20543;-80
2023/12/20 04:47:25;;;;;;;14.53;5.23;;;6.30;99.90;;;;;;5040481;28;20611;-81
2023/12/20 04:49:52;;;;;;;13.40;6.20;;;6.30;99.90;;;;;;5031193;28;20571;-81
2023/12/20 04:52:19;;;;;;;9.97;5.07;;;6.40;99.90;;;;;;5038812;28;20453;-81
2023/12/20 04:54:46;;;;;;;13.60;5.17;;;6.40;99.90;;;;;;5037801;28;20979;-81
2023/12/20 04:57:14;;;;;;;15.70;6.40;;;6.30;99.90;;;;;;5038262;28;20448;-80
2023/12/20 04:59:41;;;;;;;15.13;5.73;;;6.30;99.90;;;;;;5037622;28;20544;-80
2023/12/20 05:02:08;;;;;;;10.70;5.37;;;6.30;99.90;;;;;;5037863;28;20490;-81
2023/12/20 05:04:35;;;;;;;16.17;6.37;;;6.40;99.90;;;;;;5038593;28;20453;-80
2023/12/20 05:07:02;;;;;;;18.23;8.50;;;6.40;99.90;;;;;;5037240;28;20993;-80
2023/12/20 05:09:28;;;;;;;11.13;6.27;;;6.40;99.90;;;;;;5036813;28;21015;-76
2023/12/20 05:11:55;;;;;;;18.60;7.30;;;6.50;99.90;;;;;;5020318;28;20516;-81
2023/12/20 05:14:24;;;;;;;16.17;6.97;;;6.50;99.90;;;;;;5037281;28;20555;-80
2023/12/20 05:16:51;;;;;;;15.27;8.20;;;6.60;99.90;;;;;;5038268;28;20480;-80
2023/12/20 05:19:18;;;;;;;16.57;6.77;;;6.60;99.90;;;;;;5036859;28;20573;-80
2023/12/20 05:21:45;;;;;;;13.90;6.70;;;6.60;99.90;;;;;;5038239;28;20460;-79
2023/12/20 05:24:11;;;;;;;9.03;5.87;;;6.60;99.90;;;;;;5040088;28;20460;-80
2023/12/20 05:26:38;;;;;;;12.73;5.13;;;6.50;99.90;;;;;;5038774;28;20456;-79
2023/12/20 05:29:18;;;;;;;12.57;6.07;;;6.50;99.90;;;;;;5043141;28;20488;-76
2023/12/20 05:31:54;;;;;;;20.70;7.10;;;6.50;99.90;;;;;;5042432;28;20457;-79
2023/12/20 05:34:22;;;;;;;11.00;5.43;;;6.50;99.90;;;;;;5039704;28;20547;-79
2023/12/20 05:36:55;;;;;;;10.03;5.43;;;6.50;99.90;;;;;;5038996;28;20465;-77
2023/12/20 05:39:31;;;;;;;17.70;6.40;;;6.50;99.90;;;;;;5039617;28;20564;-76
2023/12/20 05:42:44;;;;;;;14.43;4.77;;;6.50;99.90;;;;;;5032066;28;20448;-79
2023/12/20 05:45:20;;;;;;;12.40;7.83;;;6.50;99.90;;;;;;4940991;29;20472;-78
2023/12/20 05:47:58;;;;;;;19.20;5.90;;;6.40;99.90;;;;;;4987806;28;21019;-77
2023/12/20 05:50:25;;;;;;;11.97;6.07;;;6.30;99.90;;;;;;5038856;28;20476;-81
2023/12/20 05:52:55;;;;;;;15.60;6.90;;;8.30;99.90;;;;;;5037658;28;20488;-81
2023/12/20 05:55:22;;;;;;;15.83;6.17;;;6.30;99.90;;;;;;5037819;28;20467;-79
2023/12/20 05:57:48;;;;;;;16.90;6.03;;;6.40;99.90;;;;;;5038064;28;20462;-79
2023/12/20 06:00:16;;;;;;;15.50;5.80;;;6.40;99.90;;;;;;5037415;28;20508;-81
2023/12/20 06:02:43;;;;;;;12.13;5.23;;;6.50;99.90;;;;;;5037364;28;20480;-80
2023/12/20 06:05:12;;;;;;;14.00;5.13;;;6.50;99.90;;;;;;5036779;28;20502;-80
2023/12/20 06:07:39;;;;;;;10.87;5.47;;;6.50;99.90;;;;;;5036690;28;20582;-80
2023/12/20 06:10:07;;;;;;;13.30;5.13;;;6.60;99.90;;;;;;5038463;28;20472;-80
2023/12/20 06:12:35;;;;;;;13.33;5.30;;;6.60;99.90;;;;;;5037572;28;20461;-80
2023/12/20 06:15:03;;;;;;;12.97;6.27;;;6.60;99.90;;;;;;5037280;28;20459;-80
2023/12/20 06:17:31;;;;;;;19.70;6.50;;;6.60;99.90;;;;;;5038852;28;20459;-81
2023/12/20 06:19:58;;;;;;;16.40;6.53;;;6.60;99.90;;;;;;5036956;28;20485;-80
2023/12/20 06:22:26;;;;;;;12.90;6.50;;;6.60;99.90;;;;;;5037471;28;20542;-80
2023/12/20 06:24:53;;;;;;;14.43;6.43;;;6.70;99.90;;;;;;5037976;28;20449;-79
2023/12/20 06:27:20;;;;;;;20.27;7.30;;;6.70;99.90;;;;;;5038451;28;20523;-79
2023/12/20 06:29:47;;;;;;;14.50;6.53;;;6.70;99.90;;;;;;5037516;28;20572;-80
2023/12/20 06:32:13;;;;;;;16.03;5.83;;;6.80;99.90;;;;;;5038207;28;20548;-80
2023/12/20 06:34:40;;;;;;;20.23;7.57;;;6.80;99.90;;;;;;5037356;28;20556;-81
2023/12/20 06:37:07;;;;;;;16.90;6.67;;;6.80;99.90;;;;;;5038545;28;20484;-80
2023/12/20 06:39:35;;;;;;;13.90;6.90;;;6.70;99.90;;;;;;5037019;28;20475;-80
2023/12/20 06:42:02;;;;;;;15.43;7.07;;;6.80;99.90;;;;;;5038797;28;20972;-81
2023/12/20 06:44:29;;;;;;;13.83;6.23;;;6.70;99.90;;;;;;5039440;28;20449;-84
2023/12/20 06:46:56;;;;;;;18.80;6.80;;;6.70;99.90;;;;;;5039874;28;20444;-81
2023/12/20 06:49:23;;;;;;;17.07;6.80;;;6.70;99.90;;;;;;5037261;28;20520;-80
2023/12/20 06:51:53;;;;;;;14.40;5.70;;;6.80;99.90;;;;;;5036886;28;20452;-79
2023/12/20 06:54:19;;;;;;;13.13;6.53;;;6.90;99.90;;;;;;5036710;28;20551;-79
2023/12/20 06:56:48;;;;;;;12.80;7.40;;;6.80;99.90;;;;;;5037046;28;20893;-79
2023/12/20 06:59:15;;;;;;;10.57;7.03;;;6.90;99.90;;;;;;5038065;28;20556;-79
2023/12/20 07:01:42;;;;;;;18.30;6.90;;;6.90;99.90;;;;;;5040629;28;20484;-80
2023/12/20 07:04:09;;;;;;;23.73;7.67;;;6.90;99.90;;;;;;5040614;28;20455;-80
2023/12/20 07:06:36;;;;;;;14.20;6.60;;;6.80;99.90;;;;;;5039288;28;20555;-79
2023/12/20 07:09:03;;;;;;;15.93;7.60;;;6.80;99.90;;;;;;5040942;28;20502;-80
2023/12/20 07:11:29;;;;;;;13.93;6.93;;;6.80;99.90;;;;;;5039994;28;20532;-80
2023/12/20 07:13:58;;;;;;;14.57;6.33;;;6.80;99.90;;;;;;5030394;28;20455;-80
2023/12/20 07:16:25;;;;;;;20.53;7.27;;;6.90;99.90;;;;;;5034262;28;21391;-78
2023/12/20 07:18:52;;;;;;;15.40;6.83;;;6.90;99.90;;;;;;5019005;28;20479;-78
2023/12/20 07:21:19;;;;;;;16.40;6.60;;;6.90;99.90;;;;;;5041328;28;20448;-79
2023/12/20 07:23:47;;;;;;;14.60;7.00;;;6.90;99.90;;;;;;5040044;28;20898;-79
2023/12/20 07:26:14;;;;;;;20.17;6.67;;;7.00;99.90;;;;;;5040061;28;20464;-80
2023/12/20 07:28:41;;;;;;;13.30;6.27;;;7.00;99.90;;;;;;5043883;28;20488;-79
2023/12/20 07:31:09;;;;;;;10.03;5.90;;;7.00;99.90;;;;;;5036486;28;20479;-79
2023/12/20 07:33:36;;;;;;;14.40;5.77;;;7.00;99.90;;;;;;5038269;28;20503;-79
2023/12/20 07:36:03;;;;;;;14.17;7.37;;;7.10;99.90;;;;;;5037615;28;20464;-78
2023/12/20 07:38:30;;;;;;;15.57;6.50;;;7.00;99.90;;;;;;5038456;28;20825;-80
2023/12/20 07:40:57;;;;;;;16.77;5.73;;;7.00;99.90;;;;;;5033903;28;20930;-79
2023/12/20 07:43:24;;;;;;;11.20;5.77;;;7.00;99.90;;;;;;5039487;28;20516;-80
2023/12/20 07:45:50;;;;;;;18.27;8.80;;;7.00;99.90;;;;;;5033194;28;20471;-79
2023/12/20 07:48:18;;;;;;;12.03;6.00;;;7.00;99.90;;;;;;5038871;28;20489;-79
2023/12/20 07:50:45;;;;;;;16.00;6.00;;;7.10;99.90;;;;;;5038055;28;20481;-80
2023/12/20 07:53:12;;;;;;;15.47;6.30;;;7.10;99.90;;;;;;5038681;28;20547;-79
2023/12/20 07:55:40;;;;;;;15.47;6.20;;;7.20;99.90;;;;;;5035341;28;20548;-80
2023/12/20 07:58:07;;;;;;;10.40;5.57;;;7.20;99.90;;;;;;5033152;28;20449;-79
2023/12/20 08:00:33;;;;;;;16.23;5.50;;;7.20;99.90;;;;;;5038413;28;20556;-78
2023/12/20 08:03:03;;;;;;;13.67;6.10;;;7.20;99.90;;;;;;5037227;28;20945;-79
2023/12/20 08:05:31;;;;;;;15.77;5.40;;;7.20;99.90;;;;;;5041283;28;21015;-80
2023/12/20 08:07:58;;;;;;;15.03;5.70;;;7.20;99.90;;;;;;5032167;28;20893;-79
2023/12/20 08:10:25;;;;;;;13.10;4.53;;;7.20;99.90;;;;;;5036738;28;20476;-79
2023/12/20 08:12:52;;;;;;;21.67;5.80;;;7.20;99.90;;;;;;5038340;28;20461;-80
2023/12/20 08:15:18;;;;;;;10.33;5.50;;;7.20;99.90;;;;;;5041665;28;20443;-79
2023/12/20 08:17:45;;;;;;;11.80;5.20;;;7.20;99.90;;;;;;5038556;28;20588;-79
2023/12/20 08:20:12;;;;;;;11.33;4.63;;;7.20;99.90;;;;;;5037926;28;20485;-80
2023/12/20 08:22:40;;;;;;;19.43;6.27;;;7.30;99.90;;;;;;5038912;28;20552;-79
2023/12/20 08:25:08;;;;;;;23.20;5.17;;;7.30;99.90;;;;;;5039166;28;20535;-79
2023/12/20 08:27:37;;;;;;;13.90;4.67;;;7.20;99.90;;;;;;5038909;28;20462;-79
2023/12/20 08:30:04;;;;;;;17.33;5.60;;;7.30;99.90;;;;;;5040435;28;20494;-79
2023/12/20 08:32:32;;;;;;;19.03;4.70;;;7.40;99.90;;;;;;5035844;28;20469;-79
2023/12/20 08:34:58;;;;;;;14.93;5.27;;;7.40;99.90;;;;;;5040488;28;20527;-80
2023/12/20 08:37:25;;;;;;;14.20;5.10;;;7.40;99.90;;;;;;5034263;28;20464;-79
2023/12/20 08:39:59;;;;;;;15.93;5.00;;;7.40;99.90;;;;;;5037591;28;20476;-79
2023/12/20 08:42:30;;;;;;;14.43;5.80;;;7.40;99.90;;;;;;5039313;28;20532;-79
2023/12/20 08:44:58;;;;;;;21.20;4.70;;;7.40;99.90;;;;;;5039066;28;20450;-78
2023/12/20 08:47:25;;;;;;;18.43;5.47;;;7.40;99.90;;;;;;5038485;28;20466;-79
2023/12/20 08:49:56;;;;;;;11.43;5.20;;;7.40;99.90;;;;;;5036971;28;20492;-79
2023/12/20 08:52:22;;;;;;;17.70;5.80;;;7.40;99.90;;;;;;5039347;28;20463;-79
2023/12/20 08:54:51;;;;;;;11.17;5.00;;;7.40;99.90;;;;;;5037998;28;20458;-79
2023/12/20 08:57:20;;;;;;;13.07;4.60;;;7.40;99.90;;;;;;5038529;28;21329;-79
2023/12/20 08:59:48;;;;;;;14.23;5.07;;;7.40;99.90;;;;;;5036764;28;20470;-79
2023/12/20 09:02:15;;;;;;;12.77;5.53;;;7.50;99.90;;;;;;5038673;28;20449;-79
2023/12/20 09:04:42;;;;;;;10.10;5.10;;;7.50;99.90;;;;;;5038364;28;20457;-78
2023/12/20 09:07:22;;;;;;;9.80;4.90;;;7.50;99.90;;;;;;5038305;28;20998;-79
2023/12/20 09:09:49;;;;;;;14.63;5.27;;;7.50;99.90;;;;;;5038038;28;20596;-78
2023/12/20 09:12:15;;;;;;;11.80;4.60;;;7.60;99.90;;;;;;5037889;28;20969;-78
2023/12/20 09:14:44;;;;;;;13.07;5.47;;;7.60;99.90;;;;;;5038571;28;20457;-79
2023/12/20 09:17:11;;;;;;;12.70;4.60;;;7.50;99.90;;;;;;5038364;28;20448;-78
2023/12/20 09:19:38;;;;;;;13.10;3.83;;;7.50;99.90;;;;;;5037384;28;20509;-79
2023/12/20 09:22:06;;;;;;;10.07;4.80;;;7.60;99.90;;;;;;5038029;28;20449;-79
2023/12/20 09:24:33;;;;;;;13.97;3.87;;;7.60;99.90;;;;;;5037466;28;20458;-78
2023/12/20 09:26:59;;;;;;;9.07;3.10;;;7.60;99.90;;;;;;5038261;28;20456;-79
2023/12/20 09:29:26;;;;;;;10.93;3.90;;;7.60;99.90;;;;;;5037420;28;20501;-79
2023/12/20 09:31:54;;;;;;;11.63;4.63;;;7.50;99.90;;;;;;5038146;28;20481;-79
2023/12/20 09:34:22;;;;;;;15.80;4.10;;;7.50;99.90;;;;;;5037669;28;20461;-78
2023/12/20 09:36:48;;;;;;;10.80;4.10;;;7.50;99.90;;;;;;5035215;28;20453;-80
2023/12/20 09:39:19;;;;;;;11.13;3.73;;;7.50;99.90;;;;;;5033288;28;20985;-79
2023/12/20 09:41:56;;;;;;;14.47;3.93;;;7.50;99.90;;;;;;5035298;28;21029;-79
2023/12/20 09:44:23;;;;;;;7.47;3.70;;;7.50;99.90;;;;;;5035039;28;20456;-78
2023/12/20 09:46:51;;;;;;;16.03;3.93;;;7.50;99.90;;;;;;5034536;28;20460;-80
2023/12/20 09:49:20;;;;;;;7.00;3.53;;;7.60;99.90;;;;;;5034352;28;20493;-80
2023/12/20 09:51:47;;;;;;;16.20;4.80;;;7.50;99.90;;;;;;5037180;28;20457;-80
2023/12/20 09:54:16;;;;;;;15.30;4.23;;;7.60;99.90;;;;;;5037986;28;20464;-80
2023/12/20 09:56:43;;;;;;;12.90;4.00;;;7.60;99.90;;;;;;5037408;28;21036;-80
2023/12/20 09:59:10;;;;;;;14.23;3.70;;;7.60;99.90;;;;;;5035792;28;20478;-80
2023/12/20 10:01:39;;;;;;;21.33;7.30;;;7.60;99.90;;;;;;5037541;28;20901;-77
2023/12/20 10:04:09;;;;;;;7.13;3.70;;;7.70;99.90;;;;;;5036888;28;20458;-78
2023/12/20 10:06:37;;;;;;;11.90;3.40;;;7.70;99.90;;;;;;5037411;28;20468;-80
2023/12/20 10:09:05;;;;;;;15.03;4.60;;;7.70;99.90;;;;;;5037911;28;20583;-79
2023/12/20 10:11:32;;;;;;;8.63;3.10;;;7.70;99.90;;;;;;5037680;28;20468;-79
2023/12/20 10:14:01;;;;;;;13.13;4.00;;;7.80;99.90;;;;;;5038440;28;20461;-79
2023/12/20 10:16:28;;;;;;;16.27;3.97;;;7.90;99.90;;;;;;5037285;28;20463;-79
2023/12/20 10:18:55;;;;;;;15.57;4.27;;;8.00;99.90;;;;;;5037144;28;20540;-78
2023/12/20 10:21:22;;;;;;;12.50;3.60;;;8.10;99.90;;;;;;5037293;28;20462;-79
2023/12/20 10:23:51;;;;;;;8.33;3.17;;;8.00;99.90;;;;;;5037751;28;20525;-79
2023/12/20 10:26:21;;;;;;;14.53;4.10;;;7.90;99.90;;;;;;5038671;28;20458;-79
2023/12/20 10:28:50;;;;;;;13.70;4.17;;;7.90;99.90;;;;;;5038170;28;20477;-79
2023/12/20 10:31:27;;;;;;;7.53;3.50;;;7.90;99.90;;;;;;5037432;28;20461;-79
2023/12/20 10:33:54;;;;;;;10.17;3.60;;;7.90;99.90;;;;;;5039102;28;20452;-79
2023/12/20 10:36:21;;;;;;;14.50;5.17;;;7.90;99.90;;;;;;5041809;28;20440;-79
2023/12/20 10:38:51;;;;;;;12.73;4.33;;;7.90;99.90;;;;;;5042032;28;20448;-78
2023/12/20 10:41:24;;;;;;;7.97;3.63;;;7.80;99.90;;;;;;5040929;28;20458;-79
2023/12/20 10:43:51;;;;;;;11.90;3.83;;;7.80;99.90;;;;;;5039522;28;21791;-80
2023/12/20 10:46:19;;;;;;;16.83;3.47;;;7.90;99.90;;;;;;5038935;28;20456;-79
2023/12/20 10:48:47;;;;;;;11.53;3.67;;;7.90;99.90;;;;;;5041167;28;20479;-83
2023/12/20 10:51:18;;;;;;;6.67;3.27;;;7.90;99.90;;;;;;5041530;28;20512;-80
2023/12/20 10:53:47;;;;;;;8.47;3.50;;;7.90;99.90;;;;;;5041421;28;20445;-79
2023/12/20 10:56:18;;;;;;;13.60;3.93;;;7.90;99.90;;;;;;5041065;28;20973;-79
2023/12/20 10:58:46;;;;;;;11.90;3.90;;;7.90;99.90;;;;;;5040867;28;20499;-79
2023/12/20 11:01:14;;;;;;;10.00;3.80;;;7.90;99.90;;;;;;5040585;28;20459;-79
2023/12/20 11:03:45;;;;;;;11.20;4.60;;;7.80;99.90;;;;;;5040737;28;20462;-79
2023/12/20 11:06:26;;;;;;;15.23;5.10;;;7.80;99.90;;;;;;5040036;28;20537;-79
2023/12/20 11:09:08;;;;;;;10.23;4.00;;;7.70;99.90;;;;;;5040865;28;21044;-79
2023/12/20 11:11:43;;;;;;;10.17;3.90;;;7.80;99.90;;;;;;5039227;28;21027;-80
2023/12/20 11:14:17;;;;;;;8.27;4.30;;;7.80;99.90;;;;;;5041420;28;20453;-80
2023/12/20 11:16:44;;;;;;;10.20;4.30;;;7.80;99.90;;;;;;5041151;28;20459;-80
2023/12/20 11:19:13;;;;;;;15.20;3.73;;;7.90;99.90;;;;;;5041185;28;20478;-80
2023/12/20 11:21:40;;;;;;;9.90;3.80;;;7.90;99.90;;;;;;5040378;28;20473;-80
2023/12/20 11:24:07;;;;;;;13.53;4.33;;;8.10;99.90;;;;;;5040072;28;21025;-80
2023/12/20 11:26:36;;;;;;;6.97;4.47;;;8.20;99.90;;;;;;5041950;28;20457;-80
2023/12/20 11:29:30;;;;;;;17.30;4.97;;;8.40;99.90;;;;;;5038738;28;20490;-79
2023/12/20 11:31:57;;;;;;;10.63;4.93;;;8.40;99.90;;;;;;5033693;28;20458;-80
2023/12/20 11:34:28;;;;;;;15.63;4.97;;;8.40;99.90;;;;;;5039844;28;21017;-80
2023/12/20 11:36:59;;;;;;;8.83;4.87;;;8.20;99.90;;;;;;5039299;28;20527;-78
2023/12/20 11:39:30;;;;;;;13.70;4.63;;;8.20;99.90;;;;;;5039077;28;20511;-79
2023/12/20 11:42:04;;;;;;;18.17;5.60;;;8.10;99.90;;;;;;5031361;28;20537;-79
2023/12/20 11:44:32;;;;;;;12.33;5.70;;;8.00;99.90;;;;;;5039101;28;20458;-78
2023/12/20 11:46:59;;;;;;;8.43;4.90;;;7.90;99.90;;;;;;5038734;28;20678;-79
2023/12/20 11:49:29;;;;;;;9.30;5.00;;;7.90;99.90;;;;;;5036864;28;20518;-79
2023/12/20 11:51:55;;;;;;;11.43;4.73;;;7.90;99.90;;;;;;5037937;28;20463;-80
2023/12/20 11:54:22;;;;;;;15.27;4.70;;;7.90;99.90;;;;;;5038645;28;20834;-79
2023/12/20 11:56:49;;;;;;;15.47;5.47;;;7.90;99.90;;;;;;5039098;28;20799;-80
2023/12/20 11:59:18;;;;;;;10.83;4.77;;;7.90;99.90;;;;;;5039203;28;20557;-79
2023/12/20 12:01:49;;;;;;;17.00;4.80;;;7.80;99.90;;;;;;5038560;28;20475;-79
2023/12/20 12:04:17;;;;;;;11.03;4.97;;;8.00;99.90;;;;;;5038745;28;20873;-79
2023/12/20 12:06:44;;;;;;;11.60;5.53;;;8.00;99.90;;;;;;5038220;28;20466;-79
2023/12/20 12:09:11;;;;;;;14.43;6.10;;;8.00;99.90;;;;;;5038003;28;20890;-79
2023/12/20 12:11:37;;;;;;;8.50;4.63;;;8.00;99.90;;;;;;5038429;28;20468;-80
2023/12/20 12:14:05;;;;;;;13.93;6.17;;;7.90;99.90;;;;;;5039025;28;20459;-79
2023/12/20 12:16:33;;;;;;;14.50;5.77;;;7.70;99.90;;;;;;5038757;28;20490;-79
2023/12/20 12:19:00;;;;;;;10.07;5.90;;;7.70;99.90;;;;;;5039229;28;20455;-79
2023/12/20 12:21:27;;;;;;;11.00;6.20;;;7.60;99.90;;;;;;5038529;28;20449;-79
2023/12/20 12:23:54;;;;;;;13.10;8.23;;;7.60;99.90;;;;;;5035175;28;20483;-80
2023/12/20 12:26:21;;;;;;;14.33;6.70;;;7.60;99.90;;;;;;5033781;28;20453;-79
2023/12/20 12:28:47;;;;;;;14.93;7.27;;;7.60;99.90;;;;;;5038268;28;20493;-79
2023/12/20 12:31:16;;;;;;;14.50;6.63;;;7.50;99.90;;;;;;5044971;28;20491;-80
2023/12/20 12:33:45;;;;;;;14.00;6.40;;;7.50;99.90;;;;;;5039598;28;20460;-79
2023/12/20 12:36:15;;;;;;;21.07;6.30;;;7.50;99.90;;;;;;5043613;28;20462;-77
2023/12/20 12:38:42;;;;;;;15.60;5.90;;;7.60;99.90;;;;;;5045589;28;20535;-77
2023/12/20 12:41:10;;;;;;;17.03;8.20;;;7.60;99.90;;;;;;5037297;28;20507;-80
2023/12/20 12:43:37;;;;;;;15.63;8.00;;;7.70;99.90;;;;;;5036771;28;20543;-79
2023/12/20 12:46:04;;;;;;;14.37;7.20;;;7.60;99.90;;;;;;5037233;28;20520;-80
2023/12/20 12:48:31;;;;;;;18.20;6.60;;;7.60;99.90;;;;;;5037971;28;20488;-80
2023/12/20 12:50:59;;;;;;;17.13;6.33;;;7.60;99.90;;;;;;5038801;28;20503;-78
2023/12/20 12:53:27;;;;;;;14.07;5.70;;;7.50;99.90;;;;;;5037085;28;20832;-80
2023/12/20 12:55:54;;;;;;;16.13;6.17;;;7.60;99.90;;;;;;5036906;28;20828;-80
2023/12/20 12:58:22;;;;;;;24.57;7.07;;;7.60;99.90;;;;;;5038184;28;20457;-79
2023/12/20 13:00:49;;;;;;;13.93;6.17;;;7.60;99.90;;;;;;5037345;28;20842;-79
2023/12/20 13:03:15;;;;;;;14.60;6.30;;;7.60;99.90;;;;;;5037394;28;20463;-79
2023/12/20 13:05:43;;;;;;;14.90;5.80;;;7.70;99.90;;;;;;5046174;28;20455;-77
2023/12/20 13:08:12;;;;;;;14.40;5.90;;;7.70;99.90;;;;;;5049585;28;20457;-77
2023/12/20 13:10:40;;;;;;;13.37;4.70;;;7.70;99.90;;;;;;5047568;28;20559;-76
2023/12/20 13:13:07;;;;;;;10.93;4.23;;;7.80;99.90;;;;;;5048273;28;20512;-76
2023/12/20 13:15:34;;;;;;;14.97;4.83;;;7.60;99.90;;;;;;5047642;28;20526;-77
2023/12/20 13:18:01;;;;;;;7.50;5.57;;;7.80;99.90;;;;;;5047787;28;20897;-77
2023/12/20 13:20:27;;;;;;;15.30;5.57;;;7.80;99.90;;;;;;5048363;28;20530;-77
2023/12/20 13:22:54;;;;;;;10.57;5.80;;;7.80;99.90;;;;;;5048894;28;20548;-77
2023/12/20 13:25:23;;;;;;;18.13;6.73;;;7.80;99.90;;;;;;5048496;28;20455;-78
2023/12/20 13:27:50;;;;;;;25.93;6.93;;;7.80;99.90;;;;;;5047288;28;20801;-77